Time;durP1;ratioP1;P1;durP2;ratioP2;P2;SDS_P1;SDS_P2;PMS_P1;PMS_P2;Temp;Humidity;BMP_temperature;BMP_pressure;BME280_temperature;BME280_humidity;BME280_pressure;Samples;Min_cycle;Max_cycle;Signal;HPM_P1;HPM_P2
2022/06/09 00:00:00;;;;;;;17.50;5.20;;;;;;;14.57;85.39;100811.38;5053456;28;20110;-71
2022/06/09 00:02:25;;;;;;;15.63;5.20;;;;;;;14.57;85.31;100803.50;5053215;28;20112;-70
2022/06/09 00:04:50;;;;;;;15.52;5.60;;;;;;;14.57;85.29;100812.25;5053342;28;20058;-71
2022/06/09 00:07:24;;;;;;;12.65;5.55;;;;;;;14.53;86.01;100807.00;5052101;28;20025;-70
2022/06/09 00:10:00;;;;;;;13.80;5.35;;;;;;;14.53;85.58;100820.97;5035403;28;20040;-71
2022/06/09 00:12:27;;;;;;;16.52;5.47;;;;;;;14.50;86.07;100820.09;5053242;28;20021;-71
2022/06/09 00:14:53;;;;;;;16.05;5.50;;;;;;;14.44;86.17;100821.78;5053423;28;20025;-71
2022/06/09 00:17:19;;;;;;;15.27;5.95;;;;;;;14.42;86.24;100820.91;5045623;28;20025;-73
2022/06/09 00:19:44;;;;;;;15.35;5.40;;;;;;;14.41;86.32;100819.16;5053256;28;20148;-73
2022/06/09 00:22:09;;;;;;;13.73;5.78;;;;;;;14.40;86.90;100820.00;5052744;28;20508;-73
2022/06/09 00:24:35;;;;;;;17.90;5.90;;;;;;;14.42;86.92;100822.63;5053093;28;20118;-73
2022/06/09 00:27:00;;;;;;;16.70;5.72;;;;;;;14.43;86.60;100820.03;5046516;28;20025;-73
2022/06/09 00:29:25;;;;;;;16.48;5.82;;;;;;;14.42;86.99;100815.66;5053089;28;20482;-73
2022/06/09 00:31:51;;;;;;;14.68;5.75;;;;;;;14.43;86.89;100819.16;5052929;28;20431;-73
2022/06/09 00:34:16;;;;;;;17.40;6.13;;;;;;;14.43;86.92;100825.25;5052511;28;20499;-73
2022/06/09 00:36:41;;;;;;;21.40;6.55;;;;;;;14.44;86.47;100819.16;5050919;28;20029;-73
2022/06/09 00:39:07;;;;;;;17.27;5.75;;;;;;;14.45;86.52;100822.66;5051811;28;20025;-73
2022/06/09 00:41:40;;;;;;;18.85;6.75;;;;;;;14.46;86.83;100821.78;5052738;28;20029;-73
2022/06/09 00:44:21;;;;;;;21.15;6.05;;;;;;;14.48;86.79;100824.44;5052478;28;20029;-73
2022/06/09 00:46:53;;;;;;;17.77;6.18;;;;;;;14.45;86.49;100830.50;5051589;28;20024;-73
2022/06/09 00:49:28;;;;;;;16.58;5.28;;;;;;;14.46;86.15;100829.66;5052541;28;20025;-73
2022/06/09 00:51:56;;;;;;;17.42;5.53;;;;;;;14.43;86.20;100827.88;5052463;28;20033;-73
2022/06/09 00:54:27;;;;;;;23.37;6.00;;;;;;;14.43;86.09;100830.50;5052424;28;20032;-73
2022/06/09 00:57:06;;;;;;;21.80;6.40;;;;;;;14.42;86.02;100831.41;5050153;28;20342;-73
2022/06/09 00:59:35;;;;;;;16.10;5.70;;;;;;;14.39;86.08;100838.34;5052458;28;20040;-73
2022/06/09 01:02:04;;;;;;;19.73;6.53;;;;;;;14.34;86.51;100840.03;5052204;28;20381;-73
2022/06/09 01:04:32;;;;;;;22.38;6.18;;;;;;;14.34;85.98;100830.44;5052228;28;20025;-73
2022/06/09 01:07:03;;;;;;;20.40;5.80;;;;;;;14.32;86.26;100828.69;5051188;28;20021;-72
2022/06/09 01:09:30;;;;;;;17.25;5.50;;;;;;;14.32;85.79;100834.78;5052177;28;20029;-73
2022/06/09 01:11:56;;;;;;;18.60;5.93;;;;;;;14.30;85.92;100831.28;5052040;28;20036;-73
2022/06/09 01:14:28;;;;;;;18.35;5.80;;;;;;;14.32;86.22;100837.41;5051850;28;20028;-73
2022/06/09 01:17:12;;;;;;;18.67;5.70;;;;;;;14.32;85.88;100834.78;5051398;28;20033;-73
2022/06/09 01:19:56;;;;;;;18.60;5.85;;;;;;;14.36;85.83;100838.31;5051430;28;20280;-73
2022/06/09 01:22:39;;;;;;;19.40;6.40;;;;;;;14.36;85.74;100846.19;5032344;28;20045;-73
2022/06/09 01:25:49;;;;;;;25.42;6.38;;;;;;;14.36;85.61;100848.81;5032096;28;20076;-73
2022/06/09 01:28:49;;;;;;;16.67;6.13;;;;;;;14.33;86.11;100848.78;5036306;28;20049;-72
2022/06/09 01:31:45;;;;;;;17.23;6.07;;;;;;;14.33;85.81;100843.53;5051523;28;20032;-72
2022/06/09 01:34:21;;;;;;;23.25;6.85;;;;;;;14.30;86.60;100846.16;5051629;28;20029;-72
2022/06/09 01:36:57;;;;;;;19.20;6.88;;;;;;;14.28;86.14;100846.13;5051887;28;20068;-72
2022/06/09 01:39:43;;;;;;;22.63;6.60;;;;;;;14.27;86.18;100849.63;5048820;28;20056;-72
2022/06/09 01:42:25;;;;;;;21.60;7.85;;;;;;;14.23;86.37;100853.06;5051648;28;20017;-72
2022/06/09 01:44:55;;;;;;;21.10;6.50;;;;;;;14.22;86.43;100856.53;5051498;28;20586;-72
2022/06/09 01:47:24;;;;;;;21.23;6.75;;;;;;;14.20;86.86;100858.28;5046606;28;20099;-73
2022/06/09 01:49:55;;;;;;;22.02;7.22;;;;;;;14.20;86.83;100863.53;5051260;28;20135;-72
2022/06/09 01:52:21;;;;;;;25.30;7.30;;;;;;;14.21;86.38;100867.91;5051385;28;20025;-72
2022/06/09 01:54:49;;;;;;;25.35;7.20;;;;;;;14.23;85.77;100868.78;5051369;28;20238;-73
2022/06/09 01:57:18;;;;;;;24.17;7.18;;;;;;;14.20;86.43;100869.63;5042935;28;20029;-72
2022/06/09 01:59:51;;;;;;;24.15;7.38;;;;;;;14.18;86.91;100865.25;5031174;28;20052;-72
2022/06/09 02:02:21;;;;;;;25.45;7.07;;;;;;;14.17;86.49;100874.84;5031227;28;20033;-72
2022/06/09 02:05:00;;;;;;;23.67;7.05;;;;;;;14.18;86.79;100875.72;5031495;28;20024;-73
2022/06/09 02:07:30;;;;;;;26.67;7.00;;;;;;;14.16;86.66;100872.22;5040819;28;20021;-73
2022/06/09 02:09:55;;;;;;;22.77;7.47;;;;;;;14.14;86.37;100868.72;5051018;28;20035;-72
2022/06/09 02:12:27;;;;;;;24.25;7.13;;;;;;;14.14;85.97;100866.09;5032970;28;20104;-72
2022/06/09 02:14:57;;;;;;;23.63;7.65;;;;;;;14.11;86.68;100873.91;5051005;28;20017;-72
2022/06/09 02:17:23;;;;;;;20.15;7.43;;;;;;;14.12;86.78;100879.19;5050168;28;20083;-72
2022/06/09 02:19:51;;;;;;;18.30;7.13;;;;;;;14.09;87.02;100882.66;5051050;28;20029;-72
2022/06/09 02:22:17;;;;;;;17.70;6.63;;;;;;;14.12;86.52;100886.16;5029252;28;20041;-72
2022/06/09 02:24:42;;;;;;;28.77;8.27;;;;;;;14.11;87.10;100892.25;5030855;28;20071;-72
2022/06/09 02:27:08;;;;;;;24.65;7.65;;;;;;;14.10;87.00;100894.00;5029924;28;20026;-72
2022/06/09 02:29:34;;;;;;;29.55;9.15;;;;;;;14.08;87.13;100899.22;5029297;28;20022;-72
2022/06/09 02:31:59;;;;;;;25.13;8.65;;;;;;;14.08;87.10;100895.75;5013023;28;20060;-72
2022/06/09 02:34:25;;;;;;;21.80;7.40;;;;;;;14.09;87.14;100901.00;5030662;28;20018;-72
2022/06/09 02:36:50;;;;;;;23.73;8.32;;;;;;;14.09;86.84;100902.72;5026071;28;20061;-72
2022/06/09 02:39:16;;;;;;;27.38;8.55;;;;;;;14.07;87.04;100904.44;5029100;28;20031;-72
2022/06/09 02:41:41;;;;;;;27.88;7.93;;;;;;;14.05;86.83;100912.31;5020889;28;20477;-73
2022/06/09 02:44:07;;;;;;;24.95;8.40;;;;;;;14.06;87.00;100908.81;5030514;28;20037;-72
2022/06/09 02:46:32;;;;;;;24.80;7.95;;;;;;;14.05;87.03;100908.81;5029865;28;20028;-72
2022/06/09 02:48:58;;;;;;;24.20;8.63;;;;;;;14.06;86.79;100915.78;5028706;28;20128;-72
2022/06/09 02:51:29;;;;;;;28.65;8.80;;;;;;;14.05;87.05;100925.41;5012668;28;20684;-72
2022/06/09 02:54:00;;;;;;;28.70;9.32;;;;;;;14.03;87.06;100916.66;5030287;28;20096;-72
2022/06/09 02:56:26;;;;;;;27.20;9.93;;;;;;;14.03;86.97;100913.13;5030018;28;20469;-72
2022/06/09 02:58:52;;;;;;;26.35;8.43;;;;;;;14.03;86.86;100919.28;5024971;28;20520;-73
2022/06/09 03:01:18;;;;;;;28.92;8.88;;;;;;;14.04;86.75;100922.75;5030090;28;20495;-72
2022/06/09 03:03:43;;;;;;;31.52;9.55;;;;;;;14.02;86.98;100932.34;5030228;28;20052;-72
2022/06/09 03:06:09;;;;;;;29.23;9.02;;;;;;;14.02;86.44;100927.09;5030272;28;20484;-72
2022/06/09 03:08:34;;;;;;;30.27;9.68;;;;;;;13.98;87.14;100934.06;5029731;28;20022;-72
2022/06/09 03:11:00;;;;;;;32.20;10.18;;;;;;;13.96;87.46;100945.38;5030177;28;20072;-72
2022/06/09 03:13:26;;;;;;;27.35;9.55;;;;;;;13.93;87.50;100935.72;5030482;28;20033;-72
2022/06/09 03:15:51;;;;;;;28.52;9.00;;;;;;;13.94;87.19;100945.34;5030370;28;20525;-73
2022/06/09 03:18:18;;;;;;;24.70;9.45;;;;;;;13.92;87.35;100947.09;4998316;28;20676;-72
2022/06/09 03:20:44;;;;;;;33.20;10.38;;;;;;;13.88;87.72;100958.41;5036030;28;20041;-73
2022/06/09 03:23:10;;;;;;;28.13;9.98;;;;;;;13.86;87.84;100958.38;5049974;28;20096;-72
2022/06/09 03:25:35;;;;;;;29.13;10.48;;;;;;;13.86;87.19;100961.00;5050090;28;20115;-72
2022/06/09 03:28:01;;;;;;;27.90;9.43;;;;;;;13.88;87.02;100974.97;5037918;28;20493;-73
2022/06/09 03:30:26;;;;;;;29.08;9.65;;;;;;;13.83;87.55;100965.31;5047252;28;20033;-72
2022/06/09 03:32:52;;;;;;;25.95;10.07;;;;;;;13.84;87.36;100959.22;5049976;28;20495;-72
2022/06/09 03:35:18;;;;;;;30.27;10.43;;;;;;;13.84;87.39;100967.06;5049671;28;20029;-72
2022/06/09 03:37:44;;;;;;;27.55;10.30;;;;;;;13.85;87.30;100971.47;5044728;28;20021;-73
2022/06/09 03:40:14;;;;;;;26.48;9.95;;;;;;;13.85;85.84;100974.94;5047339;28;20163;-72
2022/06/09 03:42:39;;;;;;;28.70;10.25;;;;;;;13.84;87.02;100980.16;5049992;28;20032;-72
2022/06/09 03:45:05;;;;;;;30.80;10.25;;;;;;;13.83;87.07;100988.88;5049841;28;20029;-72
2022/06/09 03:47:31;;;;;;;33.08;10.25;;;;;;;13.80;86.87;100987.13;5044299;28;20444;-72
2022/06/09 03:52:32;;;;;;;29.13;10.23;;;;;;;13.79;86.99;100994.94;5479344;23;20060;-73
2022/06/09 03:54:57;;;;;;;32.95;9.98;;;;;;;13.81;86.75;100993.22;5065570;28;20032;-73
2022/06/09 03:57:22;;;;;;;34.28;11.02;;;;;;;13.82;86.57;100998.47;5068717;28;20020;-73
2022/06/09 03:59:48;;;;;;;27.80;9.45;;;;;;;13.79;86.67;101001.06;5069518;28;20017;-72
2022/06/09 04:02:13;;;;;;;29.00;9.45;;;;;;;13.81;86.25;101003.69;5068831;28;20024;-72
2022/06/09 04:04:38;;;;;;;24.42;9.55;;;;;;;13.79;86.21;101003.69;5069727;28;20027;-72
2022/06/09 04:07:05;;;;;;;33.35;10.45;;;;;;;13.76;86.72;101013.22;5070057;28;20437;-72
2022/06/09 04:09:30;;;;;;;28.77;10.40;;;;;;;13.75;86.39;101020.22;5069918;28;20032;-72
2022/06/09 04:11:55;;;;;;;23.95;9.07;;;;;;;13.76;85.89;101021.97;5073187;28;20040;-72
2022/06/09 04:14:20;;;;;;;25.88;10.98;;;;;;;13.74;86.68;101016.72;5072981;28;20032;-72
2022/06/09 04:16:46;;;;;;;33.20;10.38;;;;;;;13.73;86.48;101025.44;5073204;28;20036;-68
2022/06/09 04:19:15;;;;;;;28.63;9.80;;;;;;;13.73;86.23;101022.81;5040197;28;20484;-69
2022/06/09 04:21:40;;;;;;;27.70;9.95;;;;;;;13.73;86.47;101025.44;5053137;28;20036;-68
2022/06/09 04:24:06;;;;;;;28.30;9.95;;;;;;;13.72;86.33;101026.28;5052881;28;20029;-68
2022/06/09 04:26:34;;;;;;;28.77;10.00;;;;;;;13.71;86.78;101032.38;5053064;28;20029;-68
2022/06/09 04:29:00;;;;;;;30.10;10.07;;;;;;;13.71;86.66;101032.38;5066943;28;20546;-68
2022/06/09 04:31:25;;;;;;;27.63;10.05;;;;;;;13.70;87.03;101035.88;5072638;28;20107;-68
2022/06/09 04:33:51;;;;;;;26.08;10.82;;;;;;;13.70;86.97;101035.88;5072928;28;20314;-68
2022/06/09 04:36:19;;;;;;;28.55;9.77;;;;;;;13.69;86.86;101036.72;5072540;28;20028;-68
2022/06/09 04:38:44;;;;;;;28.13;10.07;;;;;;;13.71;86.93;101039.34;5060299;28;20021;-68
2022/06/09 04:41:11;;;;;;;27.35;10.88;;;;;;;13.69;87.42;101043.72;5034776;28;20033;-68
2022/06/09 04:43:39;;;;;;;29.33;10.82;;;;;;;13.69;87.29;101048.94;5052764;28;20029;-68
2022/06/09 04:46:05;;;;;;;28.65;10.90;;;;;;;13.69;87.33;101051.56;5052486;28;20033;-68
2022/06/09 04:48:32;;;;;;;28.50;10.70;;;;;;;13.71;87.14;101045.47;5061196;28;20074;-72
2022/06/09 04:50:58;;;;;;;28.80;10.35;;;;;;;13.73;86.78;101056.00;5071893;28;20032;-72
2022/06/09 04:53:23;;;;;;;29.80;11.15;;;;;;;13.73;86.37;101062.09;5051869;28;20139;-72
2022/06/09 04:55:49;;;;;;;37.55;11.48;;;;;;;13.73;87.26;101064.72;5041686;28;20587;-72
2022/06/09 04:58:15;;;;;;;27.40;11.35;;;;;;;13.72;87.52;101060.31;5052462;28;20040;-72
2022/06/09 05:00:40;;;;;;;32.00;11.35;;;;;;;13.73;87.54;101066.47;5052451;28;20033;-72
2022/06/09 05:03:11;;;;;;;28.95;11.52;;;;;;;13.73;87.58;101077.81;5051651;28;20086;-72
2022/06/09 05:05:38;;;;;;;31.80;11.40;;;;;;;13.73;87.29;101077.81;5052353;28;20096;-72
2022/06/09 05:08:04;;;;;;;30.08;11.52;;;;;;;13.73;87.97;101084.78;5052229;28;20025;-72
2022/06/09 05:10:30;;;;;;;33.00;11.65;;;;;;;13.73;87.98;101093.53;5052180;28;20028;-72
2022/06/09 05:12:56;;;;;;;32.15;11.38;;;;;;;13.75;88.24;101098.78;5051057;28;20017;-72
2022/06/09 05:15:23;;;;;;;29.70;11.05;;;;;;;13.76;88.50;101104.88;5046134;28;20420;-72
2022/06/09 05:17:50;;;;;;;31.15;11.60;;;;;;;13.79;88.70;101110.16;5052180;28;20480;-72
2022/06/09 05:20:18;;;;;;;25.67;10.30;;;;;;;13.82;88.68;101111.09;5045470;28;20112;-72
2022/06/09 05:22:45;;;;;;;29.45;11.00;;;;;;;13.86;88.62;101115.53;5051267;28;20522;-72
2022/06/09 05:25:11;;;;;;;25.08;9.70;;;;;;;13.90;88.18;101116.44;5049766;28;20107;-73
2022/06/09 05:27:36;;;;;;;33.17;11.50;;;;;;;13.89;89.12;101114.72;5051910;28;20025;-72
2022/06/09 05:30:08;;;;;;;29.58;11.15;;;;;;;13.91;89.44;101121.72;5033831;28;20021;-73
2022/06/09 05:32:34;;;;;;;33.38;11.82;;;;;;;13.94;89.74;101117.38;5051617;28;20074;-72
2022/06/09 05:34:59;;;;;;;31.25;11.70;;;;;;;13.99;90.29;101116.59;5049426;28;20054;-72
2022/06/09 05:37:24;;;;;;;30.75;10.95;;;;;;;14.03;90.25;101139.38;5050563;28;20033;-73
2022/06/09 05:45:18;;;;;;;28.45;11.32;;;;;;;14.10;89.78;101145.56;5050570;28;20040;-72
2022/06/09 05:47:44;;;;;;;26.95;10.52;;;;;;;14.12;89.27;101150.81;5051439;28;20100;-72
2022/06/09 05:50:10;;;;;;;25.90;10.90;;;;;;;14.12;89.88;101148.19;5051366;28;20575;-72
2022/06/09 05:52:36;;;;;;;25.13;10.63;;;;;;;14.16;89.81;101160.47;5046810;28;20037;-72
2022/06/09 05:55:03;;;;;;;24.67;10.55;;;;;;;14.20;90.40;101159.66;5051238;28;20041;-73
2022/06/09 05:57:28;;;;;;;27.40;10.38;;;;;;;14.25;90.15;101160.59;5051204;28;20040;-73
2022/06/09 05:59:54;;;;;;;26.92;10.75;;;;;;;14.31;89.47;101160.69;5051071;28;20021;-73
2022/06/09 06:02:22;;;;;;;21.08;10.65;;;;;;;14.35;89.90;101156.38;5043779;28;20463;-73
2022/06/09 06:04:48;;;;;;;25.02;9.98;;;;;;;14.41;89.11;101157.34;5051447;28;20696;-73
2022/06/09 06:07:14;;;;;;;31.08;9.80;;;;;;;14.47;89.21;101171.38;5051131;28;20025;-73
2022/06/09 06:09:40;;;;;;;22.50;9.15;;;;;;;14.50;88.83;101176.69;5033437;28;20024;-72
2022/06/09 06:12:06;;;;;;;27.33;10.50;;;;;;;14.58;90.35;101185.50;5042848;28;20108;-72
2022/06/09 06:14:31;;;;;;;20.95;10.05;;;;;;;14.68;91.00;101186.53;5051067;28;20311;-73
2022/06/09 06:16:58;;;;;;;24.13;10.35;;;;;;;14.78;91.05;101184.03;5049524;28;20684;-73
2022/06/09 06:19:23;;;;;;;21.75;9.43;;;;;;;14.88;89.85;101189.41;5050704;28;20397;-72
2022/06/09 06:21:50;;;;;;;22.95;9.30;;;;;;;14.97;89.84;101194.75;5044142;28;20021;-72
2022/06/09 06:24:17;;;;;;;24.02;9.98;;;;;;;15.04;89.53;101198.31;5050775;28;20029;-73
2022/06/09 06:26:43;;;;;;;18.77;8.20;;;;;;;15.06;87.67;101207.06;5048596;28;20033;-73
2022/06/09 06:29:14;;;;;;;19.00;7.57;;;;;;;15.04;87.46;101214.06;5030632;28;20116;-72
2022/06/09 06:31:40;;;;;;;23.77;8.57;;;;;;;15.02;87.46;101211.44;5015516;28;20067;-72
2022/06/09 06:34:05;;;;;;;19.38;8.38;;;;;;;14.99;87.30;101208.78;5050525;28;20060;-72
2022/06/09 06:36:30;;;;;;;22.40;8.85;;;;;;;15.00;87.70;101228.00;5050332;28;20029;-72
2022/06/09 06:38:56;;;;;;;21.63;8.63;;;;;;;14.99;87.69;101224.50;5050599;28;20399;-72
2022/06/09 06:41:21;;;;;;;22.98;8.65;;;;;;;14.97;87.58;101226.22;5049444;28;20028;-72
2022/06/09 06:43:48;;;;;;;18.58;8.30;;;;;;;14.98;86.77;101228.00;5050442;28;20166;-72
2022/06/09 06:46:14;;;;;;;21.48;8.70;;;;;;;14.98;87.06;101233.25;5050423;28;20112;-72
2022/06/09 06:48:40;;;;;;;18.50;7.88;;;;;;;14.98;86.98;101235.88;5050454;28;20396;-73
2022/06/09 06:51:05;;;;;;;17.45;8.13;;;;;;;14.97;86.86;101247.22;5049412;28;20488;-74
2022/06/09 06:53:31;;;;;;;21.38;8.15;;;;;;;14.94;87.22;101242.81;5050033;28;20527;-72
2022/06/09 06:55:56;;;;;;;21.77;8.15;;;;;;;14.94;87.76;101247.19;5050364;28;20032;-73
2022/06/09 06:58:21;;;;;;;20.33;8.00;;;;;;;14.95;87.83;101262.06;5050124;28;20429;-72
2022/06/09 07:00:47;;;;;;;20.85;8.82;;;;;;;14.93;87.59;101250.66;5049460;28;20032;-72
2022/06/09 07:03:12;;;;;;;25.00;8.13;;;;;;;14.92;87.29;101260.28;5044367;28;20025;-72
2022/06/09 07:05:38;;;;;;;20.52;8.27;;;;;;;14.93;87.81;101258.53;5041937;28;20523;-72
2022/06/09 07:08:04;;;;;;;20.58;8.60;;;;;;;14.93;87.50;101266.41;5021488;28;20044;-72
2022/06/09 07:10:31;;;;;;;19.65;8.00;;;;;;;14.93;86.97;101269.03;5049670;28;20033;-73
2022/06/09 07:12:57;;;;;;;17.00;7.72;;;;;;;14.94;87.47;101270.81;5030414;28;20401;-72
2022/06/09 07:15:23;;;;;;;17.63;8.27;;;;;;;14.97;89.11;101283.94;5049037;28;20025;-73
2022/06/09 07:17:48;;;;;;;22.20;8.23;;;;;;;15.02;88.95;101279.66;5050212;28;20033;-73
2022/06/09 07:20:15;;;;;;;16.08;7.93;;;;;;;15.06;89.51;101284.09;5042341;28;20033;-73
2022/06/09 07:22:41;;;;;;;15.93;7.25;;;;;;;15.08;90.12;101284.09;5047825;28;20057;-72
2022/06/09 07:25:07;;;;;;;17.13;7.65;;;;;;;15.11;88.92;101292.88;5039354;28;20060;-72
2022/06/09 07:27:33;;;;;;;18.35;7.50;;;;;;;15.11;88.44;101292.88;5047310;28;20028;-72
2022/06/09 07:29:59;;;;;;;16.67;7.50;;;;;;;15.13;89.20;101290.28;5050126;28;20021;-73
2022/06/09 07:32:24;;;;;;;13.15;5.95;;;;;;;15.14;87.52;101302.53;5041143;28;20370;-73
2022/06/09 07:34:50;;;;;;;12.00;5.95;;;;;;;15.14;87.00;101297.28;5041280;28;20075;-73
2022/06/09 07:37:16;;;;;;;13.90;6.32;;;;;;;15.13;88.04;101295.53;5037938;28;20112;-73
2022/06/09 07:39:42;;;;;;;18.15;6.88;;;;;;;15.15;86.09;101304.31;5043603;28;20021;-73
2022/06/09 07:42:07;;;;;;;16.55;7.93;;;;;;;15.18;86.73;101298.19;5042626;28;20377;-73
2022/06/09 07:44:33;;;;;;;16.60;7.53;;;;;;;15.22;86.83;101297.38;5049719;28;20033;-73
2022/06/09 07:46:58;;;;;;;17.67;8.85;;;;;;;15.27;88.17;101300.94;5047833;28;20374;-73
2022/06/09 07:49:23;;;;;;;12.57;7.13;;;;;;;15.29;86.48;101299.22;5052385;28;20546;-73
2022/06/09 07:51:49;;;;;;;11.98;5.97;;;;;;;15.32;86.48;101301.00;5045527;28;20126;-72
2022/06/09 07:54:15;;;;;;;15.00;6.65;;;;;;;15.43;89.79;101302.88;5043463;28;20040;-73
2022/06/09 07:56:40;;;;;;;8.88;4.53;;;;;;;15.47;85.48;101302.03;5050712;28;20068;-72
2022/06/09 07:59:06;;;;;;;9.05;4.30;;;;;;;15.52;84.47;101309.09;5053286;28;20392;-72
2022/06/09 08:01:32;;;;;;;11.65;4.00;;;;;;;15.61;87.48;101309.19;5049565;28;20506;-73
2022/06/09 08:03:58;;;;;;;10.75;4.00;;;;;;;15.73;88.94;101308.41;5025397;28;20039;-73
2022/06/09 08:06:24;;;;;;;8.27;4.03;;;;;;;15.90;90.59;101319.13;5053458;28;20021;-73
2022/06/09 08:08:50;;;;;;;7.55;3.67;;;;;;;15.95;87.85;101318.31;5035329;28;20484;-73
2022/06/09 08:11:17;;;;;;;6.80;3.60;;;;;;;15.98;87.06;101320.09;5051148;28;20036;-73
2022/06/09 08:13:43;;;;;;;9.82;3.35;;;;;;;15.99;87.67;101327.97;5049618;28;20087;-73
2022/06/09 08:16:08;;;;;;;6.25;3.70;;;;;;;16.03;87.19;101323.63;5046693;28;20037;-74
2022/06/09 08:18:33;;;;;;;8.85;3.80;;;;;;;16.05;84.62;101326.25;5036469;28;20036;-73
2022/06/09 08:20:59;;;;;;;6.65;3.40;;;;;;;16.09;85.94;101339.47;5044859;28;20035;-75
2022/06/09 08:23:27;;;;;;;8.23;3.55;;;;;;;16.10;82.72;101341.22;5053095;28;20386;-73
2022/06/09 08:25:54;;;;;;;7.68;3.50;;;;;;;16.10;82.93;101346.47;5046008;28;20033;-73
2022/06/09 08:28:21;;;;;;;8.25;3.70;;;;;;;16.11;82.96;101350.00;5050504;28;20020;-73
2022/06/09 08:30:52;;;;;;;7.68;3.92;;;;;;;16.12;82.89;101352.63;5036320;28;20017;-73
2022/06/09 08:33:19;;;;;;;10.38;4.13;;;;;;;16.23;84.16;101357.09;5045601;28;20025;-73
2022/06/09 08:35:45;;;;;;;7.95;4.38;;;;;;;16.31;84.53;101358.06;5037362;28;20060;-69
2022/06/09 08:38:11;;;;;;;9.00;4.75;;;;;;;16.39;84.24;101360.75;5042129;28;20101;-69
2022/06/09 08:40:45;;;;;;;9.10;4.55;;;;;;;16.47;84.41;101367.81;5045183;28;20125;-69
2022/06/09 08:43:16;;;;;;;5.78;3.67;;;;;;;16.50;83.62;101377.50;5047782;28;20036;-69
2022/06/09 08:45:44;;;;;;;8.13;2.97;;;;;;;16.46;77.97;101375.69;5041402;28;20033;-69
2022/06/09 08:48:15;;;;;;;5.43;2.78;;;;;;;16.43;78.32;101379.19;5045220;28;20107;-69
2022/06/09 08:50:46;;;;;;;6.10;2.97;;;;;;;16.41;78.31;101380.94;5042694;28;20044;-69
2022/06/09 08:53:23;;;;;;;6.30;3.13;;;;;;;16.41;78.65;101388.81;5052238;28;20053;-69
2022/06/09 08:55:58;;;;;;;6.82;3.60;;;;;;;16.42;80.49;101395.81;5051635;28;20036;-69
2022/06/09 08:58:30;;;;;;;5.78;3.70;;;;;;;16.43;81.11;101387.06;5049206;28;20078;-69
2022/06/09 09:01:17;;;;;;;8.07;2.72;;;;;;;16.48;81.90;101395.00;5052361;28;20374;-69
2022/06/09 09:03:56;;;;;;;7.70;2.75;;;;;;;16.46;80.21;101394.97;5045264;28;20577;-69
2022/06/09 09:06:37;;;;;;;5.00;2.55;;;;;;;16.49;81.91;101397.63;5052148;28;20040;-68
2022/06/09 09:09:15;;;;;;;6.82;2.60;;;;;;;16.47;77.15;101403.78;5052489;28;20027;-68
2022/06/09 09:12:11;;;;;;;5.10;3.10;;;;;;;16.47;78.45;101409.91;5052101;28;20021;-69
2022/06/09 09:14:46;;;;;;;6.70;3.45;;;;;;;16.47;78.44;101404.66;5033246;28;20029;-68
2022/06/09 09:17:21;;;;;;;9.13;3.25;;;;;;;16.47;77.85;101416.94;5052009;28;20526;-68
2022/06/09 09:20:01;;;;;;;6.63;3.40;;;;;;;16.49;80.39;101407.28;5052061;28;20108;-69
2022/06/09 09:22:36;;;;;;;6.32;3.38;;;;;;;16.54;81.79;101412.59;5049186;28;20033;-69
2022/06/09 09:25:32;;;;;;;8.30;4.05;;;;;;;16.58;81.67;101414.38;5049610;28;20029;-69
2022/06/09 09:28:18;;;;;;;7.25;3.92;;;;;;;16.61;81.64;101422.28;5637274;23;20156;-66
2022/06/09 09:31:25;;;;;;;7.55;4.63;;;;;;;16.65;82.66;101421.44;5017296;28;20037;-67
2022/06/09 09:33:50;;;;;;;9.13;4.55;;;;;;;16.72;83.66;101432.91;4974260;28;20034;-67
2022/06/09 09:36:24;;;;;;;11.45;5.15;;;;;;;16.75;84.15;101433.81;5032165;28;20051;-67
2022/06/09 09:38:55;;;;;;;9.88;4.95;;;;;;;16.76;82.26;101438.19;5042047;28;20120;-67
2022/06/09 09:41:37;;;;;;;10.13;6.07;;;;;;;16.76;81.42;101432.06;5018094;28;20033;-67
2022/06/09 09:44:23;;;;;;;10.88;6.43;;;;;;;16.76;82.36;101443.47;5043540;28;20555;-67
2022/06/09 09:46:54;;;;;;;10.43;5.53;;;;;;;16.80;83.87;101444.34;5051384;28;20104;-66
2022/06/09 09:49:24;;;;;;;9.40;6.78;;;;;;;16.85;84.84;101446.16;5051119;28;20031;-67
2022/06/09 09:51:50;;;;;;;12.35;6.85;;;;;;;16.85;82.16;101448.78;5049584;28;20035;-66
2022/06/09 09:54:28;;;;;;;12.18;7.20;;;;;;;16.89;83.74;101439.22;5015706;28;20048;-66
2022/06/09 09:57:06;;;;;;;14.27;8.98;;;;;;;16.96;84.09;101455.91;5031308;28;20489;-67
2022/06/09 09:59:44;;;;;;;14.23;8.68;;;;;;;17.00;84.16;101460.34;5031197;28;20480;-66
2022/06/09 10:14:22;;;;;;;16.13;10.35;;;;;;;17.22;85.62;101474.53;5022602;28;20092;-67
2022/06/09 10:16:52;;;;;;;19.00;11.35;;;;;;;17.28;85.49;101478.94;5030874;28;20129;-67
2022/06/09 10:19:24;;;;;;;20.80;12.00;;;;;;;17.29;83.36;101475.44;5029199;28;20424;-67
2022/06/09 10:21:58;;;;;;;15.88;12.13;;;;;;;17.29;83.27;101478.06;5048000;28;20028;-66
2022/06/09 10:24:31;;;;;;;15.85;12.43;;;;;;;17.27;82.10;101478.06;5050463;28;20391;-67
2022/06/09 10:26:58;;;;;;;18.77;14.07;;;;;;;17.24;82.56;101479.81;5050686;28;20487;-67
2022/06/09 10:29:33;;;;;;;20.95;14.23;;;;;;;17.21;82.86;101481.53;5039573;28;20044;-67
2022/06/09 10:32:15;;;;;;;21.40;15.02;;;;;;;17.20;84.30;101484.16;5049142;28;20043;-67
2022/06/09 10:35:03;;;;;;;22.17;14.93;;;;;;;17.17;84.02;101486.78;5050628;28;20524;-67
2022/06/09 10:37:56;;;;;;;20.13;15.60;;;;;;;17.18;84.72;101496.47;5050532;28;20036;-67
2022/06/09 10:40:22;;;;;;;21.80;16.33;;;;;;;17.16;84.83;101495.53;5029358;28;20141;-67
2022/06/09 10:42:55;;;;;;;21.13;15.37;;;;;;;17.15;84.63;101492.03;5012980;28;20166;-67
2022/06/09 10:45:37;;;;;;;24.40;16.48;;;;;;;17.17;84.41;101494.69;5030347;28;20508;-67
2022/06/09 10:57:27;;;;;;;22.17;15.25;;;;;;;17.40;83.54;101505.38;5050159;28;20036;-67
2022/06/09 11:00:01;;;;;;;20.90;15.15;;;;;;;17.43;82.67;101507.16;5031233;28;20037;-67
2022/06/09 11:02:31;;;;;;;23.08;15.63;;;;;;;17.44;81.29;101507.16;5030805;28;20107;-67
2022/06/09 11:04:57;;;;;;;19.92;14.70;;;;;;;17.47;80.56;101501.03;5030476;28;20481;-67
2022/06/09 11:07:30;;;;;;;21.15;14.88;;;;;;;17.54;83.12;101503.69;5030040;28;20033;-67
2022/06/09 11:10:20;;;;;;;17.98;11.55;;;;;;;17.70;84.21;101504.66;5029247;28;20529;-67
2022/06/09 11:13:23;;;;;;;15.05;8.82;;;;;;;17.84;81.13;101504.72;5006798;28;20046;-67
2022/06/09 11:16:02;;;;;;;16.27;9.25;;;;;;;17.96;81.18;101505.66;5017300;28;20124;-67
2022/06/09 11:18:55;;;;;;;17.02;9.18;;;;;;;18.11;80.92;101520.66;5027691;28;20036;-67
2022/06/09 11:21:36;;;;;;;19.50;9.98;;;;;;;18.21;78.92;101515.41;5026029;28;20026;-67
2022/06/09 11:24:20;;;;;;;14.48;9.05;;;;;;;18.28;76.83;101510.16;5033953;28;20025;-67
2022/06/09 11:26:54;;;;;;;17.67;10.18;;;;;;;18.36;74.67;101516.31;5034116;28;20056;-67
2022/06/09 11:29:37;;;;;;;13.77;9.13;;;;;;;18.38;76.25;101506.69;5038259;28;20041;-67
2022/06/09 11:32:28;;;;;;;16.00;8.88;;;;;;;18.39;77.74;101511.06;5052263;28;20029;-67
2022/06/09 11:35:09;;;;;;;12.32;7.72;;;;;;;18.36;74.39;101518.97;5053943;28;20035;-67
2022/06/09 11:38:10;;;;;;;17.63;7.07;;;;;;;18.38;77.36;101510.19;5053959;28;20048;-68
2022/06/09 11:40:52;;;;;;;12.15;6.97;;;;;;;18.41;75.29;101520.75;5033704;28;20046;-67
2022/06/09 11:43:58;;;;;;;12.32;6.88;;;;;;;18.37;74.21;101528.66;5025164;28;20220;-74
2022/06/09 11:46:34;;;;;;;13.60;6.93;;;;;;;18.30;73.31;101529.50;4943390;28;20162;-78
2022/06/09 11:49:03;;;;;;;13.10;7.13;;;;;;;18.25;75.82;101538.28;5022141;28;20116;-76
2022/06/09 11:51:31;;;;;;;12.20;6.47;;;;;;;18.23;74.46;101547.97;5007847;28;20029;-76
2022/06/09 11:54:00;;;;;;;10.35;6.20;;;;;;;18.17;71.59;101544.41;5018090;28;20069;-74
2022/06/09 11:56:33;;;;;;;9.68;5.60;;;;;;;18.13;71.41;101555.84;5029758;28;20074;-76
2022/06/09 11:59:21;;;;;;;13.30;6.20;;;;;;;18.10;72.10;101556.69;5014311;28;20254;-77